createdAt,value
2019-03-09T00:16:28.808Z,100270.16
2019-03-09T00:22:40.978Z,100251.16
2019-03-09T00:25:21.458Z,100247.12
2019-03-09T00:28:52.190Z,100242.58
2019-03-09T00:35:30.007Z,100236.17
2019-03-09T00:38:51.854Z,100212.69
2019-03-09T00:45:24.088Z,100209.06
2019-03-09T00:47:49.070Z,100205.95
2019-03-09T00:50:18.125Z,100188.71
2019-03-09T00:53:04.693Z,100197.86
2019-03-09T01:00:05.035Z,100189.61
2019-03-09T01:03:20.105Z,100183.42
2019-03-09T01:06:10.113Z,100220.45
2019-03-09T01:19:43.668Z,100169.45
2019-03-09T01:22:18.513Z,100152.45
2019-03-09T01:28:17.776Z,100152.14
2019-03-09T01:30:46.955Z,100165.95
2019-03-09T01:33:16.104Z,100151.80
2019-03-09T01:36:39.625Z,100147.25
2019-03-09T01:39:47.463Z,100140.79
2019-03-09T01:43:46.206Z,100136.78
2019-03-09T01:46:22.678Z,100138.98
2019-03-09T01:48:53.723Z,100133.75
2019-03-09T01:51:23.011Z,100138.16
2019-03-09T01:53:52.321Z,100138.59
2019-03-09T01:56:21.758Z,100134.69
2019-03-09T01:58:50.940Z,100130.02
2019-03-09T02:01:20.256Z,100131.27
2019-03-09T02:03:49.759Z,100122.78
2019-03-09T02:06:19.174Z,100126.88
2019-03-09T02:08:48.474Z,100131.02
2019-03-09T02:11:17.742Z,100125.16
2019-03-09T02:13:47.059Z,100117.47
2019-03-09T02:16:16.444Z,100130.97
2019-03-09T02:19:47.120Z,100124.66
2019-03-09T02:30:37.275Z,100124.88
2019-03-09T02:32:44.383Z,100133.97
2019-03-09T02:37:15.217Z,100126.09
2019-03-09T02:40:05.164Z,100130.64
2019-03-09T02:46:43.729Z,100139.00
2019-03-09T02:58:49.304Z,100123.58
2019-03-09T03:02:31.349Z,100121.17
2019-03-09T03:13:44.726Z,100138.34
2019-03-09T03:16:08.600Z,100147.71
2019-03-09T03:18:38.431Z,100146.34
2019-03-09T03:24:31.653Z,100154.76
2019-03-09T03:26:57.977Z,100161.49
2019-03-09T03:30:36.450Z,100165.91
2019-03-09T03:41:29.061Z,100188.32
2019-03-09T03:44:11.995Z,100208.66
2019-03-09T03:46:41.192Z,100194.73
2019-03-09T03:52:19.026Z,100205.74
2019-03-09T03:55:18.334Z,100204.53
2019-03-09T03:58:06.852Z,100218.83
2019-03-09T04:01:59.442Z,100217.55
2019-03-09T04:04:32.385Z,100201.84
2019-03-09T04:07:03.048Z,100204.62
2019-03-09T04:09:32.213Z,100208.95
2019-03-09T04:12:01.493Z,100203.50
2019-03-09T04:16:15.594Z,100204.51
2019-03-09T04:18:51.031Z,100222.61
2019-03-09T04:22:36.436Z,100236.20
2019-03-09T04:40:50.736Z,100273.66
2019-03-09T04:51:12.146Z,100263.12
2019-03-09T04:53:41.797Z,100261.98
2019-03-09T04:56:29.286Z,100259.16
2019-03-09T04:58:58.715Z,100283.73
2019-03-09T05:01:28.041Z,100295.52
2019-03-09T05:04:51.134Z,100299.38
2019-03-09T05:19:29.448Z,100294.09
2019-03-09T05:21:58.787Z,100288.62
2019-03-09T05:24:28.481Z,100289.00
2019-03-09T05:26:58.468Z,100301.77
2019-03-09T05:29:29.242Z,100303.48
2019-03-09T05:31:59.423Z,100304.41
2019-03-09T05:47:43.992Z,100325.33
2019-03-09T05:50:13.566Z,100327.55
2019-03-09T05:52:42.966Z,100335.50
2019-03-09T06:08:04.127Z,100387.13
2019-03-09T06:11:43.899Z,100375.40
2019-03-09T06:18:53.009Z,100356.72
2019-03-09T06:21:22.963Z,100379.81
2019-03-09T06:23:53.074Z,100364.75
2019-03-09T06:26:23.831Z,100362.20
2019-03-09T06:28:53.117Z,100359.35
2019-03-09T06:32:37.988Z,100334.06
2019-03-09T06:36:24.179Z,100409.18
2019-03-09T06:38:59.085Z,100406.09
2019-03-09T06:45:30.431Z,100405.36
2019-03-09T06:48:00.442Z,100405.66
2019-03-09T06:51:56.011Z,100416.97
2019-03-09T06:55:36.271Z,100409.46
2019-03-09T06:58:25.637Z,100433.14
2019-03-09T07:00:59.796Z,100419.86
2019-03-09T07:03:30.647Z,100426.35
2019-03-09T07:06:00.466Z,100444.55
2019-03-09T07:08:31.132Z,100459.58
2019-03-09T07:11:00.658Z,100458.02
2019-03-09T07:14:40.823Z,100448.97
2019-03-09T07:17:10.743Z,100437.25
2019-03-09T07:19:40.138Z,100425.95
2019-03-09T07:22:09.912Z,100438.83
2019-03-09T07:24:39.127Z,100443.87
2019-03-09T07:27:08.602Z,100441.45
2019-03-09T07:29:38.220Z,100453.03
2019-03-09T07:36:09.594Z,100441.09
2019-03-09T07:50:56.500Z,100441.91
2019-03-09T07:53:25.920Z,100444.97
2019-03-09T07:55:55.340Z,100440.46
2019-03-09T07:58:24.782Z,100438.26
2019-03-09T08:00:54.108Z,100440.82
2019-03-09T08:03:23.468Z,100458.05
2019-03-09T08:05:52.776Z,100451.78
2019-03-09T08:08:22.190Z,100449.16
2019-03-09T08:10:51.439Z,100434.33
2019-03-09T08:14:55.885Z,100433.07
2019-03-09T08:17:25.180Z,100428.02
2019-03-09T08:19:54.494Z,100446.45
2019-03-09T08:31:06.131Z,100487.03
2019-03-09T08:38:11.888Z,100482.34
2019-03-09T08:49:08.294Z,100474.85
2019-03-09T08:51:37.874Z,100464.87
2019-03-09T08:54:08.432Z,100441.08
2019-03-09T08:56:39.090Z,100442.42
2019-03-09T08:59:08.744Z,100458.38
2019-03-09T09:01:37.873Z,100428.61
2019-03-09T09:04:07.199Z,100449.73
2019-03-09T09:06:39.362Z,100453.16
2019-03-09T09:09:09.384Z,100469.28
2019-03-09T09:11:44.367Z,100470.70
2019-03-09T09:14:13.862Z,100471.88
2019-03-09T09:16:43.221Z,100474.56
2019-03-09T09:19:12.613Z,100470.68
2019-03-09T09:21:41.927Z,100455.79
2019-03-09T09:24:11.186Z,100479.09
2019-03-09T09:26:40.514Z,100472.19
2019-03-09T09:29:10.018Z,100464.98
2019-03-09T09:31:39.314Z,100460.20
2019-03-09T09:38:13.683Z,100449.23
2019-03-09T09:40:43.035Z,100426.65
2019-03-09T09:43:12.424Z,100419.80
2019-03-09T09:45:41.805Z,100420.19
2019-03-09T09:48:11.110Z,100415.58
2019-03-09T10:04:12.035Z,100417.35
2019-03-09T10:06:43.465Z,100427.38
2019-03-09T10:09:13.807Z,100431.55
2019-03-09T10:11:43.116Z,100425.27
2019-03-09T10:14:12.566Z,100431.03
2019-03-09T10:16:41.836Z,100441.92
2019-03-09T10:35:26.884Z,100456.61
2019-03-09T10:37:57.695Z,100462.02
2019-03-09T10:45:16.141Z,100463.88
2019-03-09T11:13:55.142Z,100420.37
2019-03-09T11:16:24.475Z,100409.25
2019-03-09T11:23:05.971Z,100419.31
2019-03-09T11:25:35.412Z,100424.74
2019-03-09T11:28:12.736Z,100397.41
2019-03-09T11:30:42.118Z,100394.56
2019-03-09T11:33:11.586Z,100388.62
2019-03-09T11:35:41.184Z,100387.98
2019-03-09T11:38:11.018Z,100380.44
2019-03-09T11:40:40.965Z,100374.71
2019-03-09T11:43:10.905Z,100354.38
2019-03-09T11:45:40.797Z,100352.09
2019-03-09T11:48:10.790Z,100338.86
2019-03-09T11:50:40.653Z,100314.34
2019-03-09T11:53:10.622Z,100327.78
2019-03-09T11:55:43.103Z,100330.35
2019-03-09T11:58:12.794Z,100320.62
2019-03-09T12:00:45.136Z,100320.90
2019-03-09T12:03:12.498Z,100302.91
2019-03-09T12:05:42.228Z,100311.13
2019-03-09T12:08:11.845Z,100315.37
2019-03-09T12:18:08.728Z,100274.32
2019-03-09T12:20:38.115Z,100258.66
2019-03-09T12:27:24.204Z,100219.92
2019-03-09T12:29:53.602Z,100267.64
2019-03-09T12:32:24.885Z,100268.88
2019-03-09T12:34:54.168Z,100266.66
2019-03-09T12:37:23.595Z,100266.15
2019-03-09T12:39:52.898Z,100273.37
2019-03-09T12:42:22.303Z,100268.20
2019-03-09T12:44:51.653Z,100255.98
2019-03-09T12:47:21.169Z,100233.46
2019-03-09T12:49:50.433Z,100232.27
2019-03-09T12:52:19.794Z,100228.09
2019-03-09T12:54:48.985Z,100206.81
2019-03-09T12:57:34.421Z,100209.58
2019-03-09T13:00:48.254Z,100199.87
2019-03-09T13:03:17.787Z,100176.13
2019-03-09T13:05:52.165Z,100176.70
2019-03-09T13:08:26.586Z,100164.64
2019-03-09T13:11:43.723Z,100147.22
2019-03-09T13:14:34.054Z,100157.41
2019-03-09T13:18:12.774Z,100158.95
2019-03-09T13:22:06.463Z,100138.89
2019-03-09T13:25:14.918Z,100121.57
2019-03-09T13:31:33.130Z,100125.08
2019-03-09T13:34:07.241Z,100152.36
2019-03-09T13:36:47.533Z,100161.17
2019-03-09T13:39:19.281Z,100128.98
2019-03-09T13:41:52.193Z,100141.20
2019-03-09T13:44:26.533Z,100124.27
2019-03-09T13:47:04.995Z,100118.39
2019-03-09T13:49:39.651Z,100119.09
2019-03-09T13:52:13.582Z,100107.82
2019-03-09T13:54:47.451Z,100087.18
2019-03-09T13:57:20.876Z,100089.41
2019-03-09T13:59:52.537Z,100090.26
2019-03-09T14:02:24.708Z,100114.16
2019-03-09T14:04:54.551Z,100091.11
2019-03-09T14:07:32.476Z,100081.19
2019-03-09T14:10:10.724Z,100104.41
2019-03-09T14:12:40.312Z,100087.41
2019-03-09T14:15:28.911Z,100106.36
2019-03-09T14:17:51.404Z,100093.02
2019-03-09T14:20:25.493Z,100092.16
2019-03-09T14:22:55.553Z,100116.60
2019-03-09T14:25:44.528Z,100114.20
2019-03-09T14:28:14.283Z,100145.84
2019-03-09T14:30:49.256Z,100171.77
2019-03-09T14:33:37.197Z,100191.09
2019-03-09T14:36:04.764Z,100223.81
2019-03-09T14:38:39.688Z,100252.77
2019-03-09T14:41:09.425Z,100225.62
2019-03-09T14:43:56.950Z,100199.30
2019-03-09T14:46:40.866Z,100179.36
2019-03-09T14:49:10.354Z,100186.88
2019-03-09T14:51:39.862Z,100164.52
2019-03-09T14:54:15.412Z,100176.17
2019-03-09T14:56:54.416Z,100166.27
2019-03-09T14:59:32.491Z,100178.64
2019-03-09T15:02:01.949Z,100197.13
2019-03-09T15:04:34.421Z,100237.33
2019-03-09T15:07:08.026Z,100207.98
2019-03-09T15:09:40.073Z,100242.05
2019-03-09T15:12:27.510Z,100232.91
2019-03-09T15:14:57.041Z,100236.52
2019-03-09T15:17:34.614Z,100219.29
2019-03-09T15:20:11.749Z,100228.13
2019-03-09T15:22:50.937Z,100232.61
2019-03-09T15:25:25.487Z,100234.27
2019-03-09T15:27:58.253Z,100253.71
2019-03-09T15:30:28.101Z,100252.94
2019-03-09T15:33:06.377Z,100261.01
2019-03-09T15:35:35.304Z,100259.37
2019-03-09T15:38:06.462Z,100279.52
2019-03-09T15:40:38.927Z,100279.06
2019-03-09T15:43:08.674Z,100269.44
2019-03-09T15:45:43.025Z,100269.05
2019-03-09T15:48:12.757Z,100296.50
2019-03-09T15:50:48.397Z,100313.02
2019-03-09T15:53:20.395Z,100305.75
2019-03-09T15:55:53.040Z,100323.10
2019-03-09T15:58:22.888Z,100327.91
2019-03-09T16:00:55.160Z,100339.52
2019-03-09T16:03:46.826Z,100340.16
2019-03-09T16:06:22.679Z,100344.43
2019-03-09T16:08:55.894Z,100345.28
2019-03-09T16:11:26.937Z,100359.03
2019-03-09T16:14:08.737Z,100387.38
2019-03-09T16:16:51.478Z,100388.30
2019-03-09T16:19:16.992Z,100388.02
2019-03-09T16:21:58.216Z,100399.89
2019-03-09T16:24:36.514Z,100416.23
2019-03-09T16:27:16.078Z,100417.79
2019-03-09T16:29:52.840Z,100433.45
2019-03-09T16:32:23.512Z,100434.47
2019-03-09T16:34:53.581Z,100447.31
2019-03-09T16:37:23.101Z,100474.06
2019-03-09T16:39:53.130Z,100480.31
2019-03-09T16:42:26.598Z,100490.00
2019-03-09T16:45:09.761Z,100502.73
2019-03-09T16:47:54.214Z,100524.00
2019-03-09T16:50:37.051Z,100518.73
2019-03-09T16:53:24.866Z,100529.31
2019-03-09T16:55:43.816Z,100540.56
2019-03-09T16:58:41.065Z,100551.17
2019-03-09T17:01:20.613Z,100546.83
2019-03-09T17:04:04.264Z,100569.30
2019-03-09T17:06:36.528Z,100574.88
2019-03-09T17:09:09.991Z,100593.86
2019-03-09T17:11:48.518Z,100599.06
2019-03-09T17:14:25.392Z,100615.41
2019-03-09T17:17:03.028Z,100610.68
2019-03-09T17:19:55.098Z,100616.03
2019-03-09T17:22:33.168Z,100625.07
2019-03-09T17:25:12.899Z,100637.28
2019-03-09T17:27:44.339Z,100640.14
2019-03-09T17:30:20.253Z,100645.06
2019-03-09T17:33:18.966Z,100653.84
2019-03-09T17:36:00.012Z,100657.91
2019-03-09T17:38:29.516Z,100662.98
2019-03-09T17:41:15.074Z,100674.77
2019-03-09T17:43:54.043Z,100683.11
2019-03-09T17:49:20.684Z,100706.81
2019-03-09T17:52:03.433Z,100695.05
2019-03-09T17:54:44.280Z,100707.58
2019-03-09T17:57:19.267Z,100719.84
2019-03-09T17:59:56.353Z,100724.17
2019-03-09T18:02:43.029Z,100734.88
2019-03-09T18:05:10.928Z,100742.28
2019-03-09T18:08:14.688Z,100752.75
2019-03-09T18:10:51.773Z,100753.48
2019-03-09T18:13:21.573Z,100751.41
2019-03-09T18:15:54.677Z,100751.19
2019-03-09T18:18:24.127Z,100748.00
2019-03-09T18:20:55.737Z,100757.08
2019-03-09T18:23:29.451Z,100764.44
2019-03-09T18:26:02.759Z,100767.02
2019-03-09T18:28:37.303Z,100762.11
2019-03-09T18:31:21.326Z,100770.67
2019-03-09T18:34:00.214Z,100760.54
2019-03-09T18:36:39.283Z,100777.42
2019-03-09T18:39:16.640Z,100778.92
2019-03-09T18:41:53.110Z,100789.84
2019-03-09T18:44:32.211Z,100786.90
2019-03-09T18:47:16.163Z,100795.24
2019-03-09T18:49:54.124Z,100796.91
2019-03-09T18:52:29.823Z,100800.25
2019-03-09T18:55:00.643Z,100801.36
2019-03-09T18:57:38.347Z,100800.89
2019-03-09T19:00:27.776Z,100804.23
2019-03-09T19:03:04.720Z,100794.89
2019-03-09T19:05:37.479Z,100807.53
2019-03-09T19:08:13.237Z,100803.36
2019-03-09T19:10:43.556Z,100808.98
2019-03-09T19:13:23.088Z,100809.25
2019-03-09T19:15:58.049Z,100815.39
2019-03-09T19:18:35.709Z,100804.95
2019-03-09T19:21:13.518Z,100807.80
2019-03-09T19:23:53.572Z,100808.88
2019-03-09T19:26:23.114Z,100815.48
2019-03-09T19:28:56.039Z,100815.99
2019-03-09T19:31:33.426Z,100826.42
2019-03-09T19:34:08.462Z,100822.12
2019-03-09T19:36:39.812Z,100811.70
2019-03-09T19:39:29.257Z,100817.41
2019-03-09T19:41:55.381Z,100820.74
2019-03-09T19:44:37.194Z,100821.62
2019-03-09T19:47:06.515Z,100834.39
2019-03-09T19:49:41.341Z,100835.50
2019-03-09T19:52:19.013Z,100817.20
2019-03-09T19:54:58.853Z,100820.77
2019-03-09T19:57:59.691Z,100817.80
2019-03-09T20:00:26.335Z,100821.41
2019-03-09T20:03:08.621Z,100817.09
2019-03-09T20:06:01.918Z,100819.05
2019-03-09T20:08:30.412Z,100832.55
2019-03-09T20:11:14.420Z,100829.38
2019-03-09T20:13:50.525Z,100834.63
2019-03-09T20:16:27.483Z,100835.62
2019-03-09T20:19:07.039Z,100831.44
2019-03-09T20:22:01.615Z,100832.05
2019-03-09T20:25:09.885Z,100835.36
2019-03-09T20:27:48.480Z,100851.56
2019-03-09T20:30:30.855Z,100841.87
2019-03-09T20:33:07.603Z,100842.86
2019-03-09T20:35:36.936Z,100836.45
2019-03-09T20:38:06.026Z,100832.30
2019-03-09T20:40:35.250Z,100825.94
2019-03-09T20:43:04.535Z,100826.42
2019-03-09T20:46:25.492Z,100838.18
2019-03-09T20:51:31.936Z,100842.36
2019-03-09T20:52:31.426Z,100841.63
2019-03-09T21:05:07.481Z,100839.16
2019-03-09T21:07:23.047Z,100839.55
2019-03-09T21:09:52.295Z,100838.94
2019-03-09T21:12:21.567Z,100843.37
2019-03-09T21:14:52.150Z,100845.53
2019-03-09T21:17:21.439Z,100846.94
2019-03-09T21:20:11.112Z,100855.01
2019-03-09T21:22:40.346Z,100857.33
2019-03-09T21:25:09.513Z,100852.92
2019-03-09T21:31:37.774Z,100862.37
2019-03-09T21:34:05.832Z,100861.36
2019-03-09T21:36:34.976Z,100855.97
2019-03-09T21:39:05.254Z,100848.25
2019-03-09T21:41:34.350Z,100855.75
2019-03-09T21:44:03.683Z,100860.16
2019-03-09T21:46:32.892Z,100863.83
2019-03-09T21:49:02.056Z,100863.46
2019-03-09T21:59:19.264Z,100866.66
2019-03-09T22:01:48.622Z,100862.23
2019-03-09T22:04:18.214Z,100867.61
2019-03-09T22:06:47.875Z,100862.21
2019-03-09T22:09:17.583Z,100870.81
2019-03-09T22:11:47.784Z,100876.73
2019-03-09T22:14:17.252Z,100873.65
2019-03-09T22:16:56.245Z,100874.39
2019-03-09T22:19:16.426Z,100868.23
2019-03-09T22:21:46.814Z,100868.13
2019-03-09T22:24:16.461Z,100860.68
2019-03-09T22:26:45.557Z,100851.59
2019-03-09T22:33:13.340Z,100853.92
2019-03-09T22:35:42.917Z,100860.87
2019-03-09T22:38:15.238Z,100858.05
2019-03-09T22:49:16.156Z,100858.17
2019-03-09T22:56:31.350Z,100855.98
2019-03-09T23:08:14.650Z,100844.12
2019-03-09T23:31:12.988Z,100840.76
2019-03-09T23:33:42.086Z,100839.41
2019-03-09T23:52:22.863Z,100822.89
2019-03-09T23:54:52.023Z,100808.17
